South Mason Valley, Nevada Weather observations

Data are for 10 minute period ending at time listed.
 Day   Time   Solar   Ave.   Ave.  Ave.  Vector  Max.   Baro.   Total    
  of    of     Rad.   Air    Rel.  Wind   Wind   Wind  Press.  Precip.   
Year   Day            Temp.  Hum.  Speed  Dir.   Gust                    
2015   (PST)  Kw/m2    F      %     mph   deg.    mph    mb.     in.     
-------------------------------------------------------------------------
 107   19:50   0.00   53.1    20    0.7   209     1.1   880.0    0.00 
 107   20:00   0.00   52.3    21    2.3   260     4.1   880.2    0.00 
 107   20:10   0.00   50.6    22    2.5   262     3.9   880.3    0.00 
 107   20:20   0.00   51.6    20    1.6   258     2.1   880.5    0.00 
 107   20:30   0.00   49.1    23    2.0   280     3.1   880.5    0.00 
 107   20:40   0.00   47.2    24    1.1   241     2.0   880.6    0.00 
 107   20:50   0.00   47.0    25    2.1   197     2.8   880.6    0.00 
 107   21:00   0.00   46.3    26    1.3   235     2.2   880.6    0.00 
 107   21:10   0.00   48.0    22    0.6   280     1.2   880.7    0.00 
 107   21:20   0.00   48.0    22    0.2   301     0.9   880.7    0.00 
 107   21:30   0.00   48.0    21    1.8   258     2.6   880.7    0.00 
 107   21:40   0.00   47.2    23    2.2   280     3.4   880.7    0.00 
 107   21:50   0.00   44.5    26    1.1   285     3.4   880.8    0.00 
 107   22:00   0.00   45.5    23    0.5   308     1.3   881.0    0.00 
 107   22:10   0.00   46.5    21    0.3   337     1.5   881.0    0.00 
 107   22:20   0.00   46.3    22    1.3     4     1.7   881.1    0.00 
 107   22:30   0.00   46.6    22    1.2    30     2.0   881.0    0.00 
 107   22:40   0.00   45.1    23    0.0     0     0.0   881.2    0.00 
 107   22:50   0.00   45.2    23    0.7   351     1.2   881.2    0.00 
 107   23:00   0.00   44.2    25    0.8   341     2.0   881.2    0.00 
 107   23:10   0.00   42.8    25    0.8   135     2.6   881.3    0.00 
 107   23:20   0.00   39.7    28    3.4   168     5.1   881.3    0.00 
 107   23:30   0.00   38.6    30    1.6   185     2.8   881.3    0.00 
 107   23:40   0.00   39.3    29    2.2   189     3.2   881.3    0.00 
 107   23:50   0.00   39.7    28    1.4   157     2.8   881.3    0.00 
 108    0:00   0.00   39.7    28    1.2   149     2.3   881.3    0.00 
 108    0:10   0.00   40.4    27    0.7   153     1.2   881.3    0.00 
 108    0:20   0.00   41.2    25    2.1    95     3.4   881.2    0.00 
 108    0:30   0.00   42.1    24    2.6    87     3.3   881.1    0.00 
 108    0:40   0.00   40.3    26    1.1     6     2.6   881.1    0.00 
 108    0:50   0.00   40.6    26    0.6   333     3.7   881.0    0.00 
 108    1:00   0.00   40.4    27    1.2     1     3.7   880.9    0.00 
 108    1:10   0.00   38.9    28    1.6    93     2.7   880.8    0.00 
 108    1:20   0.00   39.2    28    2.1    56     3.1   880.8    0.00 
 108    1:30   0.00   39.7    28    2.1    52     3.2   880.9    0.00 
 108    1:40   0.00   38.1    30    2.1    15     3.2   880.9    0.00 
 108    1:50   0.00   39.8    28    0.6    24     2.4   880.9    0.00 
 108    2:00   0.00   41.8    24    0.3    92     0.9   880.8    0.00 
 108    2:10   0.00   42.8    22    0.9    10     1.5   880.8    0.00 
 108    2:20   0.00   42.1    23    0.0    10     0.7   881.0    0.00 
 108    2:30   0.00   39.0    28    0.9   144     1.3   881.0    0.00 
 108    2:40   0.00   36.1    32    1.0   142     1.8   881.0    0.00 
 108    2:50   0.00   38.8    27    0.8   303     1.6   881.0    0.00 
 108    3:00   0.00   39.3    28    1.0   301     1.8   880.9    0.00 
 108    3:10   0.00   39.5    26    1.9   270     6.9   881.0    0.00 
 108    3:20   0.00   39.6    28    0.6   307     5.0   881.1    0.00 
 108    3:30   0.00   35.9    32    0.1    85     1.1   881.1    0.00 
 108    3:40   0.00   36.0    32    0.8   352     2.8   881.1    0.00 
 108    3:50   0.00   38.0    28    1.8   309     3.3   881.1    0.00 
 108    4:00   0.00   36.2    31    3.5   279     4.7   881.0    0.00 
 108    4:10   0.00   35.3    32    4.2   276     5.2   881.1    0.00 
 108    4:20   0.00   36.5    31    3.7   329     6.1   881.3    0.00 
 108    4:30   0.00   33.1    38    4.0    25     6.1   881.5    0.00 
 108    4:40   0.00   33.8    38    3.8    29     6.2   881.6    0.00 
 108    4:50   0.00   33.7    37    2.4    24     4.4   881.7    0.00 
 108    5:00   0.00   34.2    36    2.8    59     5.0   881.7    0.00 
 108    5:10   0.00   34.2    36    2.0   205     5.6   881.7    0.00 
 108    5:20   0.01   35.3    36    2.3   224     5.0   881.7    0.00 
 108    5:30   0.02   32.4    46    4.8   207     6.0   881.6    0.00 
 108    5:40   0.04   32.0    46    4.9   220     6.4   881.6    0.00 
 108    5:50   0.06   33.1    44    2.7   202     3.4   881.7    0.00 
 108    6:00   0.09   34.8    40    2.9   304     4.2   881.9    0.00 
 108    6:10   0.12   37.2    36    1.9     7     3.2   882.1    0.00 
 108    6:20   0.15   40.7    32    0.5    38     1.4   882.3    0.00 
 108    6:30   0.18   44.0    27    0.4   334     1.5   882.3    0.00 
 108    6:40   0.21   46.0    26    0.6   170     1.7   882.3    0.00 
 108    6:50   0.24   47.7    25    0.9   212     1.8   882.4    0.00 
 108    7:00   0.28   50.5    24    1.6   185     2.8   882.4    0.00 
 108    7:10   0.31   51.9    21    0.5   304     1.6   882.4    0.00 
 108    7:20   0.34   52.7    22    1.2   309     2.9   882.3    0.00 
 108    7:30   0.38   53.5    21    2.3   340     4.2   882.3    0.00 
 108    7:40   0.41   55.7    21    3.2   326     6.1   882.2    0.00 
 108    7:50   0.44   57.1    19    4.2   317     6.6   882.1    0.00 
 108    8:00   0.47   58.3    18    3.8   310     6.5   882.0    0.00 
 108    8:10   0.51   59.6    16    3.5   326     5.9   882.0    0.00 
 108    8:20   0.54   60.1    16    4.4   355     8.3   882.0    0.00 
 108    8:30   0.56   61.2    15    5.2   319     8.3   881.9    0.00 
 108    8:40   0.59   61.3    14    4.7   350     8.1   882.0    0.00 
 108    8:50   0.62   61.9    15    5.8     0     9.2   882.1    0.00 
 108    9:00   0.65   62.9    15    7.4     7    10.7   882.2    0.00 
 108    9:10   0.68   63.1    15    8.8     8    14.6   882.2    0.00 
 108    9:20   0.70   63.3    15    8.4     9    14.6   882.3    0.00 
 108    9:30   0.72   64.3    15    9.9   352    15.5   882.3    0.00 
 108    9:40   0.74   64.6    16    8.8   358    12.9   882.2    0.00 
 108    9:50   0.76   65.2    16    8.9   353    15.1   882.2    0.00 
 108   10:00   0.78   65.9    15    9.3     2    15.9   882.2    0.00 
 108   10:10   0.80   66.0    13   10.0   358    15.4   882.3    0.00 
 108   10:20   0.82   66.5    13    8.2    20    12.6   882.2    0.00 
 108   10:30   0.83   66.9    12    8.7    36    14.2   882.3    0.00 
 108   10:40   0.84   67.4    13    8.5    17    12.7   882.2    0.00 
 108   10:50   0.85   67.5    14    8.3     5    16.0   882.1    0.00 
 108   11:00   0.86   68.3    13    7.5    24    15.0   882.0    0.00 
 108   11:10   0.87   68.8    13    7.7    35    13.4   881.9    0.00 
 108   11:20   0.88   69.1    13    9.5     1    13.4   881.8    0.00 
 108   11:30   0.88   69.4    13    8.2    28    13.9   881.6    0.00 
 108   11:40   0.89   69.8    13    7.3    18    12.5   881.6    0.00 
 108   11:50   0.89   70.7    13    7.4    32    12.9   881.4    0.00 
 108   12:00   0.89   70.8    13    8.1    24    14.8   881.3    0.00 
 108   12:10   0.88   72.0    13    7.6    42    15.1   881.2    0.00 
 108   12:20   0.88   71.9    13    6.3    15    12.3   881.1    0.00 
 108   12:30   0.88   72.7    13    7.2    40    13.1   881.0    0.00 
 108   12:40   0.87   72.9    13    7.8    48    15.1   880.9    0.00 
 108   12:50   0.86   73.3    12    6.0    45    12.3   880.9    0.00 
 108   13:00   0.85   73.2    13    8.8    28    14.3   880.9    0.00 
 108   13:10   0.84   73.0    13    5.8    11    13.8   880.8    0.00 
 108   13:20   0.82   73.4    13    7.0    13    12.9   880.7    0.00 
 108   13:30   0.81   73.4    13    6.6    34    13.0   880.6    0.00 
 108   13:40   0.80   73.7    13    8.0    35    13.2   880.5    0.00 
 108   13:50   0.78   73.6    13    4.3   348     9.3   880.4    0.00 
 108   14:00   0.76   74.2    12    3.0   130    10.7   880.2    0.00 
 108   14:10   0.74   74.0    14    8.4    24    14.4   880.1    0.00 
 108   14:20   0.72   74.2    13    2.6   304    11.7   880.0    0.00 
 108   14:30   0.69   75.7    13    4.9    22    14.2   879.7    0.00 
 108   14:40   0.67   74.3    13    5.1    14    12.4   879.6    0.00 
 108   14:50   0.64   74.8    14    7.9    12    15.4   879.5    0.00 
 108   15:00   0.62   74.6    14    9.4   331    20.6   879.3    0.00 
 108   15:10   0.59   74.4    13    7.1   338    15.0   879.3    0.00 
 108   15:20   0.57   74.8    14    5.9   338    10.9   879.2    0.00 
 108   15:30   0.55   74.9    13    8.4     7    16.9   879.2    0.00 
 108   15:40   0.52   74.2    13    8.6    13    14.5   879.1    0.00 
 108   15:50   0.43   73.9    13    8.1    12    14.0   879.0    0.00 
 108   16:00   0.44   74.2    12    6.9    34    13.4   878.9    0.00 
 108   16:10   0.42   74.3    12    8.8    36    14.7   878.8    0.00 
 108   16:20   0.39   74.2    12    7.9    41    12.6   878.8    0.00 
 108   16:30   0.24   73.6    12    7.7    36    13.3   878.8    0.00 
 108   16:40   0.26   72.1    13    8.8    26    13.7   878.8    0.00 
 108   16:50   0.27   72.9    13    7.9    26    12.3   878.8    0.00 
 108   17:00   0.24   72.9    13    9.6    18    16.1   878.7    0.00 
 108   17:10   0.13   71.7    14    9.1    17    13.7   878.7    0.00 
 108   17:20   0.11   70.6    14    8.7    17    15.3   878.7    0.00 
 108   17:30   0.13   71.0    14    7.3    15    11.2   878.6    0.00 
 108   17:40   0.13   71.2    14    8.0    28    15.3   878.5    0.00 
 108   17:50   0.10   70.9    14    5.8    36     9.4   878.5    0.00 
 108   18:00   0.06   69.4    15    6.1    26     9.9   878.5    0.00 
 108   18:10   0.04   68.6    15    6.1    30    10.8   878.4    0.00 
 108   18:20   0.02   66.8    17    5.2    32     7.5   878.4    0.00 
 108   18:30   0.01   65.8    17    4.4    30     6.7   878.4    0.00 
 108   18:40   0.00   65.1    17    4.2    27     5.8   878.3    0.00 
 108   18:50   0.00   64.1    17    4.1    24     5.0   878.2    0.00 
 108   19:00   0.00   63.4    17    4.2    23     6.1   878.2    0.00 
 108   19:10   0.00   62.3    18    4.0    26     5.7   878.3    0.00 
 108   19:20   0.00   62.2    18    4.1    34     6.9   878.3    0.00 
 108   19:30   0.00   61.4    18    5.2    21     7.6   878.4    0.00 
 108   19:40   0.00   61.0    19    5.7    19     7.8   878.6    0.00 

Return to south Mason Valley graphs page.


Western Regional Climate Center,wrcc@dri.edu